Terminal Aerodrome Forecast
Issued by NWS Chicago, IL

Home | Current Version | Previous Version | Graphics & Text | Print | Product List | Glossary On
Versions: 1 2 3 4 5 6 7 8 9 10 11 12 13 14 15 16 17 18 19 20 21 22 23 24 25 26
277
FTUS43 KLOT 011501 AAA
TAFRFD
TAF AMD
KRFD 011501Z 0115/0212 04011KT 6SM BR OVC008
     FM011800 06012KT 5SM BR VCSH OVC009
     FM012100 06012G18KT 5SM -SHRA OVC012
      TEMPO 0123/0203 3SM RA BR OVC006
     FM020400 04012KT 5SM BR OVC005
     FM021000 03010KT P6SM FEW005 SCT012=

USA.gov is the U.S. government's official web portal to all federal, state and local government web resources and services.